Time;durP1;ratioP1;P1;durP2;ratioP2;P2;SDS_P1;SDS_P2;PMS_P1;PMS_P2;Temp;Humidity;BMP_temperature;BMP_pressure;BME280_temperature;BME280_humidity;BME280_pressure;Samples;Min_cycle;Max_cycle;Signal;HPM_P1;HPM_P2
2022/06/24 00:01:56;;;;;;;9.38;1.88;;;;;;;26.45;51.95;99417.38;4977443;28;20438;-77
2022/06/24 00:04:29;;;;;;;5.95;1.52;;;;;;;26.38;52.57;99395.78;4972812;28;20046;-78
2022/06/24 00:06:56;;;;;;;3.72;1.58;;;;;;;26.33;52.40;99389.41;4950312;28;20520;-78
2022/06/24 00:09:28;;;;;;;6.95;1.40;;;;;;;26.28;53.57;99379.31;4986455;28;20485;-78
2022/06/24 00:12:09;;;;;;;10.80;2.17;;;;;;;26.26;53.85;99386.88;4980774;28;20053;-77
2022/06/24 00:14:37;;;;;;;14.25;2.17;;;;;;;26.23;53.72;99384.69;4983157;28;20096;-76
2022/06/24 00:17:12;;;;;;;9.73;1.80;;;;;;;26.20;53.73;99380.56;4967956;28;20045;-76
2022/06/24 00:20:00;;;;;;;3.92;1.58;;;;;;;26.20;53.94;99363.38;4962299;28;20053;-76
2022/06/24 00:22:29;;;;;;;7.97;1.63;;;;;;;26.16;53.50;99363.06;4949741;28;20065;-77
2022/06/24 00:25:25;;;;;;;16.25;2.13;;;;;;;26.10;54.50;99355.06;4961399;28;20113;-85
2022/06/24 00:28:03;;;;;;;4.72;1.50;;;;;;;26.04;54.71;99353.34;4927111;28;20702;-77
2022/06/24 00:30:44;;;;;;;7.30;1.80;;;;;;;25.98;54.93;99352.44;4984760;28;20081;-77
2022/06/24 00:33:13;;;;;;;12.18;2.63;;;;;;;25.94;54.51;99351.28;4982576;28;20105;-77
2022/06/24 00:35:45;;;;;;;9.23;1.90;;;;;;;25.88;54.62;99344.94;4984301;28;20379;-78
2022/06/24 00:38:35;;;;;;;15.05;2.60;;;;;;;25.85;55.40;99342.75;4966053;28;20058;-77
2022/06/24 00:41:11;;;;;;;14.77;2.30;;;;;;;25.83;55.11;99333.16;4887932;28;20054;-77
2022/06/24 00:43:43;;;;;;;18.85;2.50;;;;;;;25.80;56.11;99322.75;4993682;28;20490;-78
2022/06/24 00:46:24;;;;;;;10.93;2.00;;;;;;;25.76;56.07;99334.13;4984021;28;20046;-86
2022/06/24 00:48:52;;;;;;;14.63;2.10;;;;;;;25.74;55.98;99330.81;4983752;28;20088;-87
2022/06/24 00:51:20;;;;;;;23.15;3.00;;;;;;;25.74;55.92;99321.84;4973265;28;20156;-87
2022/06/24 00:53:49;;;;;;;22.10;2.58;;;;;;;25.71;56.04;99323.16;4979036;28;20093;-86
2022/06/24 00:56:20;;;;;;;8.45;1.85;;;;;;;25.71;56.51;99344.91;4991535;28;20053;-86
2022/06/24 00:58:54;;;;;;;4.80;1.70;;;;;;;25.72;56.72;99348.44;4990855;28;20042;-87
2022/06/24 01:01:31;;;;;;;6.25;1.83;;;;;;;25.71;57.11;99349.53;4970656;28;20511;-77
2022/06/24 01:03:59;;;;;;;20.42;2.17;;;;;;;25.75;56.19;99346.06;4966493;28;20054;-87
2022/06/24 01:06:27;;;;;;;6.68;1.92;;;;;;;25.76;56.82;99341.47;4998333;28;20049;-87
2022/06/24 01:08:54;;;;;;;6.40;1.55;;;;;;;25.73;56.47;99333.81;4979916;28;20050;-88
2022/06/24 01:11:25;;;;;;;7.47;2.05;;;;;;;25.69;56.74;99341.59;4990032;28;20058;-85
2022/06/24 01:13:55;;;;;;;5.60;1.85;;;;;;;25.69;56.83;99333.44;4981629;28;20068;-85
2022/06/24 01:16:22;;;;;;;8.52;2.17;;;;;;;25.65;56.92;99335.03;4975788;28;20047;-80
2022/06/24 01:18:54;;;;;;;6.07;1.58;;;;;;;25.67;57.06;99337.50;4968934;28;20490;-81
2022/06/24 01:21:31;;;;;;;8.07;1.53;;;;;;;25.67;57.39;99334.78;4964179;28;20501;-81
2022/06/24 01:24:08;;;;;;;12.10;1.75;;;;;;;25.62;57.43;99319.22;4964728;28;20052;-81
2022/06/24 01:26:36;;;;;;;9.45;1.85;;;;;;;25.62;56.82;99319.22;4993332;28;20556;-81
2022/06/24 01:29:09;;;;;;;4.05;1.42;;;;;;;25.60;56.71;99307.75;4966647;28;20042;-80
2022/06/24 01:31:38;;;;;;;7.95;1.80;;;;;;;25.57;56.85;99283.78;4996886;28;20042;-81
2022/06/24 01:34:05;;;;;;;8.23;2.05;;;;;;;25.53;57.09;99283.44;4978930;28;20045;-81
2022/06/24 01:36:32;;;;;;;7.68;1.80;;;;;;;25.50;57.29;99278.50;4998085;28;20182;-81
2022/06/24 01:38:59;;;;;;;12.18;1.60;;;;;;;25.44;57.11;99263.19;4996226;28;20054;-81
2022/06/24 01:41:25;;;;;;;4.25;1.50;;;;;;;25.42;57.16;99262.63;4997207;28;20061;-80
2022/06/24 01:43:52;;;;;;;3.67;1.65;;;;;;;25.40;57.04;99258.50;4967033;28;20046;-81
2022/06/24 01:46:19;;;;;;;7.95;1.63;;;;;;;25.39;57.56;99254.13;4993638;28;20076;-81
2022/06/24 01:48:45;;;;;;;5.55;2.00;;;;;;;25.38;57.20;99255.19;4987035;28;20533;-81
2022/06/24 01:51:14;;;;;;;4.00;1.70;;;;;;;25.36;57.56;99254.63;4998831;28;20044;-81
2022/06/24 01:53:40;;;;;;;4.43;1.55;;;;;;;25.35;57.20;99261.94;4984228;28;20068;-80
2022/06/24 01:56:07;;;;;;;4.57;1.85;;;;;;;25.32;57.56;99255.13;4985067;28;20038;-80
2022/06/24 01:58:34;;;;;;;3.92;1.70;;;;;;;25.30;57.44;99254.53;4969170;28;20386;-81
2022/06/24 02:01:02;;;;;;;3.45;1.52;;;;;;;25.28;57.79;99278.41;4952905;28;20077;-80
2022/06/24 02:03:31;;;;;;;6.75;1.70;;;;;;;25.31;58.07;99266.22;4999852;28;20045;-81
2022/06/24 02:06:02;;;;;;;7.53;1.88;;;;;;;25.29;57.73;99255.63;4980776;28;20473;-80
2022/06/24 02:08:29;;;;;;;7.70;1.50;;;;;;;25.30;57.54;99256.44;4977844;28;20054;-81
2022/06/24 02:13:44;;;;;;;2.92;1.35;;;;;;;25.28;58.06;99255.84;4938768;28;20159;-77
2022/06/24 02:16:10;;;;;;;5.68;1.70;;;;;;;25.27;57.80;99251.50;4979167;28;20121;-78
2022/06/24 02:18:38;;;;;;;3.78;1.35;;;;;;;25.25;57.75;99246.28;4967991;28;20092;-77
2022/06/24 02:21:04;;;;;;;8.68;2.00;;;;;;;25.23;57.57;99248.44;4962250;28;20049;-78
2022/06/24 02:23:31;;;;;;;3.05;1.35;;;;;;;25.20;57.48;99262.50;4951429;28;20465;-78
2022/06/24 02:25:58;;;;;;;3.30;1.10;;;;;;;25.18;57.80;99264.63;4993187;28;20054;-77
2022/06/24 02:28:25;;;;;;;4.40;1.27;;;;;;;25.14;57.75;99271.63;4952639;28;20069;-77
2022/06/24 02:30:54;;;;;;;4.65;1.50;;;;;;;25.10;57.83;99275.88;4997101;28;20058;-77
2022/06/24 02:33:21;;;;;;;8.75;1.40;;;;;;;25.06;57.84;99281.00;4983466;28;20055;-77
2022/06/24 02:35:48;;;;;;;6.10;1.63;;;;;;;25.05;58.06;99284.75;4982520;28;20042;-77
2022/06/24 02:38:15;;;;;;;6.47;1.70;;;;;;;25.03;58.00;99281.47;4962480;28;20052;-88
2022/06/24 02:40:45;;;;;;;4.43;1.95;;;;;;;25.04;57.88;99274.16;4967653;28;20054;-89
2022/06/24 02:43:17;;;;;;;5.13;1.80;;;;;;;25.02;58.15;99277.09;4982207;28;20137;-89
2022/06/24 02:45:48;;;;;;;2.80;1.38;;;;;;;25.03;57.81;99273.31;4984960;28;20053;-88
2022/06/24 02:48:16;;;;;;;4.38;1.50;;;;;;;25.02;58.00;99279.00;4984263;28;20045;-77
2022/06/24 02:50:45;;;;;;;3.58;1.30;;;;;;;25.00;57.81;99267.56;4972711;28;20052;-77
2022/06/24 02:53:14;;;;;;;6.07;1.70;;;;;;;24.96;57.92;99278.09;4986806;28;20483;-77
2022/06/24 02:55:42;;;;;;;7.60;1.67;;;;;;;24.94;58.06;99273.97;4979913;28;20151;-80
2022/06/24 02:58:10;;;;;;;3.03;1.77;;;;;;;24.90;58.13;99269.00;4986583;28;20168;-80
2022/06/24 03:00:39;;;;;;;3.80;1.55;;;;;;;24.91;58.19;99264.41;4976246;28;20042;-80
2022/06/24 03:03:09;;;;;;;7.20;1.50;;;;;;;24.90;58.33;99257.31;4980376;28;20056;-78
2022/06/24 03:05:36;;;;;;;3.78;1.60;;;;;;;24.88;58.51;99256.72;4978383;28;20133;-84
2022/06/24 03:08:03;;;;;;;6.00;1.88;;;;;;;24.88;58.43;99254.03;4949297;28;20118;-85
2022/06/24 03:10:30;;;;;;;4.35;1.40;;;;;;;24.88;58.62;99251.31;4959375;28;20050;-85
2022/06/24 03:12:56;;;;;;;5.90;1.90;;;;;;;24.86;58.51;99256.19;4967460;28;20050;-84
2022/06/24 03:15:24;;;;;;;5.75;1.90;;;;;;;24.82;58.53;99250.41;4963554;28;20556;-85
2022/06/24 03:17:50;;;;;;;3.30;1.30;;;;;;;24.80;58.49;99244.38;4970968;28;20046;-85
2022/06/24 03:20:17;;;;;;;6.32;1.92;;;;;;;24.78;58.58;99249.25;4954187;28;20065;-85
2022/06/24 03:27:27;;;;;;;4.18;1.70;;;;;;;24.73;58.95;99245.59;4977627;28;20110;-86
2022/06/24 03:29:53;;;;;;;4.95;1.80;;;;;;;24.72;59.08;99249.38;4952564;28;20410;-87
2022/06/24 03:32:20;;;;;;;6.13;2.13;;;;;;;24.69;59.10;99245.25;4978096;28;20049;-87
2022/06/24 03:34:47;;;;;;;6.07;2.17;;;;;;;24.67;59.01;99244.69;4968654;28;20092;-86
2022/06/24 03:37:44;;;;;;;13.80;2.13;;;;;;;24.62;59.42;99253.53;4967521;28;20050;-87
2022/06/24 03:40:11;;;;;;;5.47;1.98;;;;;;;24.63;59.29;99257.09;4954891;28;20041;-87
2022/06/24 03:42:38;;;;;;;4.43;1.80;;;;;;;24.61;59.72;99254.63;4962363;28;21001;-87
2022/06/24 03:45:06;;;;;;;5.20;1.85;;;;;;;24.57;59.29;99250.72;4955940;28;20050;-87
2022/06/24 03:47:33;;;;;;;4.32;2.13;;;;;;;24.54;59.31;99251.22;4987264;28;20052;-86
2022/06/24 03:50:00;;;;;;;5.50;2.00;;;;;;;24.51;59.00;99251.69;4981415;28;20719;-85
2022/06/24 03:52:26;;;;;;;9.43;2.60;;;;;;;24.50;59.60;99249.22;4954664;28;20422;-86
2022/06/24 03:54:54;;;;;;;4.63;2.20;;;;;;;24.46;59.37;99252.41;4981169;28;20503;-86
2022/06/24 03:57:21;;;;;;;4.75;2.63;;;;;;;24.45;59.25;99249.94;4966077;28;20117;-85
2022/06/24 03:59:48;;;;;;;5.15;2.70;;;;;;;24.41;59.53;99251.47;4968636;28;20043;-86
2022/06/24 04:02:15;;;;;;;5.57;2.90;;;;;;;24.37;59.35;99245.69;4976668;28;20516;-86
2022/06/24 04:04:41;;;;;;;5.35;2.63;;;;;;;24.34;59.63;99254.31;4951400;28;20073;-85
2022/06/24 04:07:08;;;;;;;9.82;2.90;;;;;;;24.30;59.47;99255.88;4952898;28;20053;-85
2022/06/24 04:09:35;;;;;;;5.85;2.83;;;;;;;24.27;59.64;99259.03;4975987;28;20042;-85
2022/06/24 04:12:01;;;;;;;8.07;2.65;;;;;;;24.25;59.65;99244.91;4952722;28;20473;-85
2022/06/24 04:17:13;;;;;;;5.03;3.15;;;;;;;24.19;59.74;99237.72;4966053;28;20171;-87
2022/06/24 04:19:40;;;;;;;5.28;3.13;;;;;;;24.15;59.33;99228.41;4982272;28;20046;-87
2022/06/24 04:22:07;;;;;;;6.00;3.45;;;;;;;24.13;59.62;99235.97;4953920;28;20072;-86
2022/06/24 04:24:33;;;;;;;5.03;3.30;;;;;;;24.11;59.83;99247.03;4974218;28;20505;-84
2022/06/24 04:27:00;;;;;;;10.43;3.28;;;;;;;24.07;59.91;99243.19;4963965;28;20066;-85
2022/06/24 04:29:27;;;;;;;11.52;3.45;;;;;;;24.06;59.69;99238.78;4948931;28;20043;-86
2022/06/24 04:31:54;;;;;;;8.27;3.40;;;;;;;24.04;59.90;99235.50;4968110;28;20057;-85
2022/06/24 04:34:24;;;;;;;5.22;3.40;;;;;;;24.04;60.16;99239.06;4963489;28;20121;-85
2022/06/24 04:36:50;;;;;;;5.30;3.10;;;;;;;24.02;60.03;99229.50;4962347;28;20042;-85
2022/06/24 04:39:17;;;;;;;8.88;3.08;;;;;;;24.04;60.28;99236.34;4994077;28;20057;-85
2022/06/24 04:41:44;;;;;;;7.10;3.10;;;;;;;24.15;60.37;99234.66;4962255;28;20050;-85
2022/06/24 04:44:10;;;;;;;5.35;2.88;;;;;;;24.31;60.47;99232.28;4951678;28;20042;-85
2022/06/24 04:46:37;;;;;;;7.53;3.38;;;;;;;24.46;60.16;99228.00;4950570;28;20540;-85
2022/06/24 04:49:04;;;;;;;8.02;3.78;;;;;;;24.63;60.36;99228.06;4962933;28;20128;-86
2022/06/24 04:51:31;;;;;;;8.05;3.15;;;;;;;24.78;59.91;99221.25;4981904;28;20037;-85
2022/06/24 04:53:57;;;;;;;5.35;3.45;;;;;;;24.82;59.82;99227.84;4985323;28;20108;-86
2022/06/24 04:56:24;;;;;;;11.43;3.95;;;;;;;24.78;59.75;99230.25;4984386;28;20528;-86
2022/06/24 04:58:58;;;;;;;4.20;2.88;;;;;;;24.75;59.88;99230.69;4945245;28;20509;-86
2022/06/24 05:01:25;;;;;;;5.32;3.20;;;;;;;24.69;60.13;99227.06;4980041;28;20046;-85
2022/06/24 05:03:52;;;;;;;6.22;3.10;;;;;;;24.65;60.05;99225.94;4973180;28;20097;-85
2022/06/24 05:06:19;;;;;;;9.07;3.40;;;;;;;24.65;60.57;99225.94;4989509;28;20057;-86
2022/06/24 05:08:47;;;;;;;10.45;3.20;;;;;;;24.69;60.60;99220.84;4987511;28;20045;-85
2022/06/24 05:11:14;;;;;;;5.25;3.22;;;;;;;24.73;60.29;99223.88;4979888;28;20504;-85
2022/06/24 05:13:40;;;;;;;7.15;3.53;;;;;;;24.75;60.58;99225.28;4966236;28;20507;-84
2022/06/24 05:16:07;;;;;;;4.82;2.75;;;;;;;24.81;60.79;99218.06;4980600;28;20042;-86
2022/06/24 05:18:54;;;;;;;9.90;3.10;;;;;;;24.83;61.12;99221.34;4954151;28;20038;-86
2022/06/24 05:21:20;;;;;;;6.57;2.72;;;;;;;24.90;60.66;99219.31;5001221;28;20050;-85
2022/06/24 05:23:47;;;;;;;5.95;3.00;;;;;;;24.90;60.62;99222.84;4982582;28;20050;-85
2022/06/24 05:26:14;;;;;;;8.90;3.03;;;;;;;24.95;61.01;99226.72;4977569;28;20068;-85
2022/06/24 05:28:41;;;;;;;7.72;3.13;;;;;;;24.99;61.05;99220.56;4965727;28;20043;-85
2022/06/24 05:31:07;;;;;;;5.15;2.90;;;;;;;25.03;60.95;99218.97;4981280;28;20045;-86
2022/06/24 05:33:34;;;;;;;4.57;3.05;;;;;;;25.11;60.76;99225.91;4965706;28;20042;-86
2022/06/24 05:36:28;;;;;;;8.95;2.85;;;;;;;25.13;61.36;99221.06;4971582;28;20050;-86
2022/06/24 05:38:55;;;;;;;8.98;2.97;;;;;;;25.16;61.60;99226.03;4924221;28;20049;-83
2022/06/24 05:41:22;;;;;;;11.73;3.13;;;;;;;25.21;61.20;99223.38;4964219;28;20128;-83
2022/06/24 05:43:49;;;;;;;7.75;3.03;;;;;;;25.23;60.72;99223.97;4968897;28;20053;-82
2022/06/24 05:46:15;;;;;;;9.32;3.17;;;;;;;25.24;60.91;99222.91;4950434;28;20634;-82
2022/06/24 05:48:43;;;;;;;8.20;2.85;;;;;;;25.28;60.96;99232.22;4966625;28;20042;-82
2022/06/24 05:51:15;;;;;;;8.30;2.97;;;;;;;25.24;60.71;99228.34;4986419;28;20122;-82
2022/06/24 05:56:29;;;;;;;10.52;3.50;;;;;;;25.27;60.36;99221.59;4984127;28;20041;-87
2022/06/24 05:58:57;;;;;;;8.25;3.15;;;;;;;25.28;60.22;99236.81;4971051;28;20080;-87
2022/06/24 06:01:25;;;;;;;6.35;3.00;;;;;;;25.27;60.44;99222.41;4990724;28;20054;-87
2022/06/24 06:03:51;;;;;;;5.60;2.80;;;;;;;25.27;60.47;99225.13;4973692;28;20049;-85
2022/06/24 06:06:19;;;;;;;6.53;3.03;;;;;;;25.36;60.82;99222.81;4955282;28;20058;-84
2022/06/24 06:09:15;;;;;;;10.10;3.25;;;;;;;25.42;61.07;99231.91;4954885;28;20129;-84
2022/06/24 06:11:41;;;;;;;13.13;3.13;;;;;;;25.43;61.05;99228.09;4946004;28;20054;-87
2022/06/24 06:14:14;;;;;;;9.07;2.40;;;;;;;25.43;60.83;99236.25;4980035;28;23705;-87
2022/06/24 06:16:41;;;;;;;7.78;2.72;;;;;;;25.54;59.76;99232.59;4987320;28;20487;-87
2022/06/24 06:19:09;;;;;;;8.48;2.30;;;;;;;25.43;60.02;99231.63;4985720;28;20077;-88
2022/06/24 06:21:36;;;;;;;5.82;2.60;;;;;;;25.37;60.44;99243.50;4966645;28;20129;-87
2022/06/24 06:24:03;;;;;;;7.43;2.90;;;;;;;25.36;60.61;99238.31;4966658;28;20049;-88
2022/06/24 06:26:29;;;;;;;6.55;2.67;;;;;;;25.37;61.25;99231.81;4969525;28;20097;-84
2022/06/24 06:28:56;;;;;;;9.65;2.97;;;;;;;25.37;61.00;99237.25;4960844;28;20058;-81
2022/06/24 06:31:23;;;;;;;9.27;2.65;;;;;;;25.39;61.33;99235.94;4978392;28;20104;-83
2022/06/24 06:33:52;;;;;;;10.25;2.63;;;;;;;25.43;61.49;99231.63;4982441;28;20093;-86
2022/06/24 06:36:19;;;;;;;9.02;2.60;;;;;;;25.44;61.72;99243.31;4969064;28;20050;-86
2022/06/24 06:38:47;;;;;;;9.40;3.05;;;;;;;25.44;61.19;99229.72;4981639;28;20042;-85
2022/06/24 06:41:15;;;;;;;12.75;2.58;;;;;;;25.48;61.19;99234.44;4984098;28;20045;-85
2022/06/24 06:43:42;;;;;;;8.43;2.83;;;;;;;25.49;61.37;99237.97;4968481;28;20050;-85
2022/06/24 06:46:10;;;;;;;10.82;2.58;;;;;;;25.49;59.60;99235.25;4994011;28;20389;-83
2022/06/24 06:48:37;;;;;;;7.82;2.25;;;;;;;25.38;59.79;99234.28;4955849;28;20409;-84
2022/06/24 06:51:04;;;;;;;8.13;2.33;;;;;;;25.29;59.98;99236.59;4953210;28;20383;-85
2022/06/24 06:53:31;;;;;;;8.75;2.72;;;;;;;25.26;59.72;99238.97;4948529;28;20137;-84
2022/06/24 06:55:58;;;;;;;7.40;2.58;;;;;;;25.06;59.40;99239.41;4969670;28;20554;-84
2022/06/24 06:58:26;;;;;;;7.93;2.50;;;;;;;25.04;59.53;99241.56;4962477;28;20077;-85
2022/06/24 07:01:20;;;;;;;7.18;2.22;;;;;;;25.01;59.41;99244.75;4986074;28;20052;-85
2022/06/24 07:03:47;;;;;;;12.82;2.83;;;;;;;25.05;59.39;99248.63;4963689;28;20121;-82
2022/06/24 07:06:14;;;;;;;7.22;2.60;;;;;;;25.05;59.29;99243.19;4961782;28;20111;-84
2022/06/24 07:08:41;;;;;;;4.95;2.53;;;;;;;25.05;58.65;99240.47;4945259;28;20048;-82
2022/06/24 07:11:11;;;;;;;9.38;2.60;;;;;;;25.02;59.21;99243.69;4975899;28;20057;-80
2022/06/24 07:13:38;;;;;;;7.47;2.50;;;;;;;24.98;59.36;99245.25;4983294;28;20056;-79
2022/06/24 07:16:32;;;;;;;7.97;3.00;;;;;;;24.92;59.50;99237.00;4977871;28;20486;-88
2022/06/24 07:18:59;;;;;;;6.97;2.58;;;;;;;25.02;58.85;99243.69;4930703;28;20092;-91
2022/06/24 07:21:25;;;;;;;5.72;2.72;;;;;;;25.00;58.46;99243.09;4968540;28;20041;-90
2022/06/24 07:23:52;;;;;;;5.22;2.25;;;;;;;24.97;57.92;99243.59;4963072;28;20516;-91
2022/06/24 07:26:19;;;;;;;4.75;2.33;;;;;;;24.94;58.45;99242.19;4975016;28;20046;-89
2022/06/24 07:28:46;;;;;;;5.78;2.30;;;;;;;25.00;58.48;99235.78;4969906;28;20073;-89
2022/06/24 07:31:17;;;;;;;6.55;2.28;;;;;;;25.00;58.83;99243.09;4982583;28;20113;-91
2022/06/24 07:33:45;;;;;;;7.40;2.60;;;;;;;25.04;58.68;99241.56;4983656;28;20133;-90
2022/06/24 07:36:12;;;;;;;5.32;2.50;;;;;;;25.12;58.99;99236.53;4950775;28;20042;-89
2022/06/24 07:38:39;;;;;;;6.63;2.67;;;;;;;25.19;58.82;99232.84;4959518;28;20525;-89
2022/06/24 07:41:07;;;;;;;7.20;2.50;;;;;;;25.22;57.40;99235.94;4963460;28;20498;-88
2022/06/24 07:43:36;;;;;;;5.88;2.92;;;;;;;25.14;57.76;99225.44;4975715;28;20069;-87
2022/06/24 07:46:05;;;;;;;7.22;2.90;;;;;;;25.14;57.03;99239.03;4960553;28;20049;-88
2022/06/24 07:48:32;;;;;;;7.45;2.60;;;;;;;25.15;57.64;99239.84;4961212;28;20049;-88
2022/06/24 07:51:13;;;;;;;7.32;2.75;;;;;;;25.17;56.71;99229.59;4971516;28;20406;-88
2022/06/24 07:53:42;;;;;;;3.08;2.22;;;;;;;25.23;56.89;99232.13;4992333;28;20401;-87
2022/06/24 07:59:01;;;;;;;5.05;2.50;;;;;;;25.26;56.46;99241.69;4930601;28;20426;-83
2022/06/24 08:01:29;;;;;;;4.10;2.13;;;;;;;25.24;55.76;99239.22;4950355;28;20493;-84
2022/06/24 08:03:56;;;;;;;4.90;2.67;;;;;;;25.15;56.06;99237.94;4935373;28;20057;-85
2022/06/24 08:06:23;;;;;;;3.88;2.28;;;;;;;25.16;56.02;99238.75;4936414;28;20057;-85
2022/06/24 08:08:49;;;;;;;6.05;2.60;;;;;;;25.09;56.15;99234.31;4976186;28;20121;-83
2022/06/24 08:11:16;;;;;;;5.63;2.58;;;;;;;25.13;56.33;99234.63;4963715;28;20111;-79
2022/06/24 08:13:43;;;;;;;9.40;2.15;;;;;;;25.11;56.96;99225.91;4948472;28;20069;-78
2022/06/24 08:16:10;;;;;;;6.63;2.80;;;;;;;25.02;56.55;99220.06;4952981;28;20057;-78
2022/06/24 08:18:36;;;;;;;7.05;2.90;;;;;;;25.10;57.36;99232.41;4995668;28;20037;-79
2022/06/24 08:21:03;;;;;;;4.55;2.53;;;;;;;25.13;56.81;99221.06;4990621;28;20061;-78
2022/06/24 08:23:30;;;;;;;8.85;2.55;;;;;;;25.18;56.67;99223.88;4982645;28;20048;-78
2022/06/24 08:25:57;;;;;;;5.82;2.58;;;;;;;25.17;55.82;99221.44;4964177;28;20050;-78
2022/06/24 08:28:23;;;;;;;6.23;2.80;;;;;;;25.20;55.26;99221.75;4939528;28;1086992;-80
2022/06/24 08:30:50;;;;;;;5.20;2.45;;;;;;;25.18;56.17;99217.63;4971944;28;20732;-80
2022/06/24 08:33:19;;;;;;;3.97;2.25;;;;;;;25.18;55.48;99218.44;4955452;28;20054;-82
2022/06/24 08:35:46;;;;;;;5.32;2.30;;;;;;;25.23;55.23;99207.66;4982439;28;20046;-81
2022/06/24 08:38:15;;;;;;;4.95;2.45;;;;;;;25.25;55.31;99215.59;4957042;28;20060;-86
2022/06/24 08:40:48;;;;;;;4.40;1.90;;;;;;;25.27;55.37;99206.13;4973021;28;20145;-83
2022/06/24 08:43:16;;;;;;;5.93;2.80;;;;;;;25.28;55.12;99201.50;4984775;28;20038;-86
2022/06/24 08:45:47;;;;;;;5.38;2.65;;;;;;;25.28;55.06;99206.94;4979108;28;20063;-81
2022/06/24 08:48:14;;;;;;;4.20;2.25;;;;;;;25.31;55.03;99207.25;4979395;28;20056;-85
2022/06/24 08:54:54;;;;;;;5.07;2.08;;;;;;;25.45;54.90;99198.78;4945781;28;20104;-83
2022/06/24 08:57:21;;;;;;;7.05;2.65;;;;;;;25.46;55.03;99195.78;4971320;28;20125;-84
2022/06/24 08:59:47;;;;;;;3.15;2.22;;;;;;;25.40;55.34;99194.09;4986047;28;20413;-85
2022/06/24 09:02:15;;;;;;;4.78;2.42;;;;;;;25.51;53.91;99195.88;4970055;28;20497;-85
2022/06/24 09:04:43;;;;;;;5.25;2.45;;;;;;;25.36;54.24;99197.53;4970669;28;20715;-84
2022/06/24 09:07:26;;;;;;;5.43;2.40;;;;;;;25.28;54.24;99196.88;4970184;28;20074;-85
2022/06/24 09:10:00;;;;;;;5.93;2.83;;;;;;;25.36;54.49;99190.22;4955932;28;20042;-84
2022/06/24 09:12:54;;;;;;;4.00;2.33;;;;;;;25.33;53.00;99190.72;4984156;28;20450;-85
2022/06/24 09:15:22;;;;;;;2.15;1.90;;;;;;;25.33;54.60;99182.56;4925649;28;20042;-85
2022/06/24 09:17:48;;;;;;;4.57;2.42;;;;;;;25.37;54.54;99166.59;4972992;28;20046;-84
2022/06/24 09:20:33;;;;;;;4.22;2.83;;;;;;;25.48;54.13;99177.34;4964405;28;20042;-89
2022/06/24 09:23:06;;;;;;;3.60;2.50;;;;;;;25.55;54.09;99179.91;4926679;28;20395;-90
2022/06/24 09:25:54;;;;;;;2.97;2.78;;;;;;;25.56;52.79;99176.09;4990833;28;20041;-90
2022/06/24 09:28:22;;;;;;;5.07;2.40;;;;;;;25.65;52.91;99176.50;4970887;28;20517;-91
2022/06/24 09:30:50;;;;;;;3.47;2.47;;;;;;;25.68;52.64;99165.13;5002279;28;20046;-92
2022/06/24 09:33:49;;;;;;;3.10;2.13;;;;;;;25.68;52.90;99160.50;4973526;28;20050;-88
2022/06/24 09:36:16;;;;;;;4.30;2.45;;;;;;;25.83;52.32;99145.47;4958118;28;20050;-91
2022/06/24 09:38:56;;;;;;;2.65;2.45;;;;;;;25.85;52.01;99149.63;4955938;28;20461;-88
2022/06/24 09:41:23;;;;;;;4.93;2.35;;;;;;;25.84;52.09;99166.97;4971351;28;20128;-88
2022/06/24 09:43:51;;;;;;;3.80;2.83;;;;;;;25.78;52.20;99154.38;4949905;28;20048;-88
2022/06/24 09:46:21;;;;;;;3.53;2.38;;;;;;;25.77;51.80;99159.00;4950492;28;20582;-88
2022/06/24 09:48:51;;;;;;;5.07;2.20;;;;;;;25.53;51.04;99152.13;4966265;28;20409;-87
2022/06/24 09:51:17;;;;;;;4.50;2.22;;;;;;;25.57;51.07;99147.84;4987274;28;20388;-87
2022/06/24 09:53:45;;;;;;;4.60;2.60;;;;;;;25.67;51.44;99144.44;4950278;28;20050;-87
2022/06/24 09:56:18;;;;;;;4.65;2.97;;;;;;;25.65;50.85;99147.41;4955737;28;20482;-86
2022/06/24 10:00:40;;;;;;;;;;;;;;;25.56;50.92;99149.72;4955539;28;20077;-87
2022/06/24 10:01:37;;;;;;;2.80;2.53;;;;;;;25.60;50.14;99149.25;4969444;28;19922;-88
2022/06/24 10:04:05;;;;;;;2.67;2.47;;;;;;;25.69;50.96;99151.25;4966019;28;20129;-87
2022/06/24 10:06:35;;;;;;;3.78;2.47;;;;;;;25.65;50.56;99149.31;4959843;28;20509;-88
2022/06/24 10:09:04;;;;;;;4.25;2.20;;;;;;;25.61;51.12;99150.88;4954694;28;20622;-89
2022/06/24 10:11:38;;;;;;;3.55;2.88;;;;;;;25.53;51.07;99138.53;4985692;28;20405;-88
2022/06/24 10:14:04;;;;;;;6.00;2.58;;;;;;;25.49;51.69;99145.53;4956210;28;20401;-89
2022/06/24 10:16:32;;;;;;;4.18;2.78;;;;;;;25.46;51.58;99143.34;4963534;28;20092;-87
2022/06/24 10:19:00;;;;;;;2.95;2.50;;;;;;;25.64;52.31;99140.31;4950293;28;20033;-88
2022/06/24 10:21:27;;;;;;;3.22;2.60;;;;;;;25.81;51.98;99140.28;4937466;28;20042;-90
2022/06/24 10:23:55;;;;;;;2.72;2.40;;;;;;;25.70;50.47;99150.22;4955569;28;20074;-90
2022/06/24 10:26:34;;;;;;;4.82;2.72;;;;;;;25.51;49.69;99154.28;4973229;28;20034;-89
2022/06/24 10:29:03;;;;;;;5.43;2.65;;;;;;;25.49;50.58;99161.84;4970495;28;20061;-89
2022/06/24 10:31:48;;;;;;;3.55;2.35;;;;;;;25.51;49.83;99154.28;4978844;28;20405;-87
2022/06/24 10:34:28;;;;;;;2.78;2.58;;;;;;;25.57;49.76;99161.44;4968992;28;20377;-89
2022/06/24 10:37:26;;;;;;;4.10;2.78;;;;;;;25.65;50.70;99154.75;4977141;28;20050;-89
2022/06/24 10:39:55;;;;;;;4.03;2.53;;;;;;;25.72;50.59;99149.94;4947237;28;20445;-89
2022/06/24 10:42:24;;;;;;;3.92;3.00;;;;;;;25.78;50.36;99148.94;4978454;28;20052;-89
2022/06/24 10:44:50;;;;;;;3.35;2.60;;;;;;;25.78;50.82;99159.81;4971536;28;20046;-90
2022/06/24 10:47:18;;;;;;;8.52;2.72;;;;;;;25.78;50.87;99155.19;4979117;28;20129;-89
2022/06/24 10:50:09;;;;;;;4.40;2.60;;;;;;;25.77;50.89;99148.13;4986182;28;20092;-89
2022/06/24 10:52:46;;;;;;;4.22;2.67;;;;;;;25.86;51.17;99143.09;4950724;28;20502;-90
2022/06/24 10:55:16;;;;;;;3.10;2.10;;;;;;;25.87;50.50;99146.63;4982465;28;20116;-89
2022/06/24 10:57:43;;;;;;;2.95;2.30;;;;;;;26.02;50.46;99135.13;4975851;28;20050;-88
2022/06/24 11:00:14;;;;;;;3.00;2.33;;;;;;;26.14;49.34;99120.31;4961037;28;20061;-87
2022/06/24 11:02:42;;;;;;;5.57;2.28;;;;;;;26.19;49.39;99130.44;4997865;28;20050;-89
2022/06/24 11:05:15;;;;;;;4.00;2.40;;;;;;;26.28;49.12;99128.06;4967872;28;20083;-88
2022/06/24 11:07:45;;;;;;;;;;;;;;;26.30;49.21;99126.72;4976522;28;20085;-89
2022/06/24 11:10:16;;;;;;;6.30;2.78;;;;;;;26.31;48.62;99131.09;4968770;28;19922;-90
2022/06/24 11:12:58;;;;;;;3.58;2.55;;;;;;;26.34;49.17;99116.97;4969339;28;20046;-91
2022/06/24 11:15:41;;;;;;;3.72;2.33;;;;;;;26.32;49.25;99121.84;4905421;28;20526;-90
2022/06/24 11:18:21;;;;;;;3.92;2.22;;;;;;;26.37;49.01;99131.97;4930062;28;20047;-91
2022/06/24 11:20:51;;;;;;;2.72;2.50;;;;;;;26.37;48.79;99138.22;4977008;28;20070;-90
2022/06/24 11:23:19;;;;;;;4.53;2.20;;;;;;;26.34;49.07;99132.50;4931683;28;20058;-84
2022/06/24 11:25:56;;;;;;;6.85;2.47;;;;;;;26.33;48.50;99123.50;4962020;28;20047;-86
2022/06/24 11:28:32;;;;;;;4.07;2.33;;;;;;;26.33;48.72;99128.97;4930034;28;20049;-86
2022/06/24 11:31:14;;;;;;;4.25;2.42;;;;;;;26.34;48.13;99129.78;4944599;28;20051;-86
2022/06/24 11:33:41;;;;;;;4.80;2.55;;;;;;;26.39;49.04;99127.09;4977039;28;20518;-85
2022/06/24 11:36:09;;;;;;;2.70;2.50;;;;;;;26.35;49.19;99128.69;4917118;28;20197;-88
2022/06/24 11:39:04;;;;;;;2.28;2.08;;;;;;;26.33;48.50;99120.78;4932611;28;20043;-91
2022/06/24 11:41:35;;;;;;;4.63;2.53;;;;;;;26.30;48.38;99120.47;4944028;28;20047;-89
2022/06/24 11:44:36;;;;;;;4.25;2.17;;;;;;;26.23;47.46;99119.84;4895010;28;20070;-89
2022/06/24 11:47:05;;;;;;;2.30;2.10;;;;;;;26.33;48.55;99118.06;4924874;28;20069;-91
2022/06/24 11:49:32;;;;;;;4.13;2.33;;;;;;;26.45;48.62;99112.44;4989424;28;20046;-89
2022/06/24 11:51:59;;;;;;;2.28;2.08;;;;;;;26.45;48.87;99096.13;4946274;28;20066;-88
2022/06/24 11:54:31;;;;;;;4.00;2.25;;;;;;;26.51;48.42;99095.09;4984220;28;20038;-88
2022/06/24 11:56:58;;;;;;;2.40;2.20;;;;;;;26.64;48.19;99102.06;4965626;28;20100;-89
2022/06/24 11:59:28;;;;;;;2.60;2.28;;;;;;;26.60;46.97;99090.84;4969487;28;20049;-90
2022/06/24 12:01:56;;;;;;;3.15;2.10;;;;;;;26.55;47.03;99107.13;4954801;28;20049;-91
2022/06/24 12:04:25;;;;;;;1.73;1.60;;;;;;;26.60;46.22;99109.09;4966466;28;20050;-91
2022/06/24 12:07:26;;;;;;;1.75;1.50;;;;;;;26.46;43.96;99102.38;4950692;28;20054;-91
2022/06/24 12:09:52;;;;;;;2.63;1.88;;;;;;;26.40;45.45;99083.28;4933689;28;20722;-91